sensor_id;sensor_type;location;lat;lon;timestamp;temperature;humidity
1367;DHT22;16877;48.810;9.282;2023-01-30T00:02:35;11.60;46.90
1367;DHT22;16877;48.810;9.282;2023-01-30T00:05:04;11.60;47.10
1367;DHT22;16877;48.810;9.282;2023-01-30T00:07:31;11.50;47.00
1367;DHT22;16877;48.810;9.282;2023-01-30T00:09:59;11.60;47.10
1367;DHT22;16877;48.810;9.282;2023-01-30T00:12:26;11.60;47.50
1367;DHT22;16877;48.810;9.282;2023-01-30T00:14:54;11.60;47.50
1367;DHT22;16877;48.810;9.282;2023-01-30T00:17:21;11.60;47.40
1367;DHT22;16877;48.810;9.282;2023-01-30T00:19:50;11.50;47.10
1367;DHT22;16877;48.810;9.282;2023-01-30T00:22:17;11.50;46.80
1367;DHT22;16877;48.810;9.282;2023-01-30T00:24:45;11.50;46.80
1367;DHT22;16877;48.810;9.282;2023-01-30T00:27:13;11.40;46.50
1367;DHT22;16877;48.810;9.282;2023-01-30T00:29:40;11.30;46.60
1367;DHT22;16877;48.810;9.282;2023-01-30T00:32:07;11.30;46.60
1367;DHT22;16877;48.810;9.282;2023-01-30T00:34:35;11.40;47.00
1367;DHT22;16877;48.810;9.282;2023-01-30T00:37:03;11.40;47.10
1367;DHT22;16877;48.810;9.282;2023-01-30T00:39:31;11.40;47.20
1367;DHT22;16877;48.810;9.282;2023-01-30T00:41:59;11.40;47.30
1367;DHT22;16877;48.810;9.282;2023-01-30T00:44:43;11.30;47.40
1367;DHT22;16877;48.810;9.282;2023-01-30T00:47:28;11.30;47.30
1367;DHT22;16877;48.810;9.282;2023-01-30T00:49:55;11.30;47.40
1367;DHT22;16877;48.810;9.282;2023-01-30T00:52:24;11.30;47.50
1367;DHT22;16877;48.810;9.282;2023-01-30T00:54:56;11.30;47.50
1367;DHT22;16877;48.810;9.282;2023-01-30T00:57:24;11.30;47.60
1367;DHT22;16877;48.810;9.282;2023-01-30T00:59:51;11.30;47.70
1367;DHT22;16877;48.810;9.282;2023-01-30T01:02:19;11.40;47.80
1367;DHT22;16877;48.810;9.282;2023-01-30T01:05:01;11.40;47.90
1367;DHT22;16877;48.810;9.282;2023-01-30T01:07:30;11.40;48.50
1367;DHT22;16877;48.810;9.282;2023-01-30T01:10:12;11.40;47.90
1367;DHT22;16877;48.810;9.282;2023-01-30T01:12:55;11.40;47.90
1367;DHT22;16877;48.810;9.282;2023-01-30T01:15:23;11.40;47.80
1367;DHT22;16877;48.810;9.282;2023-01-30T01:17:55;11.40;47.90
1367;DHT22;16877;48.810;9.282;2023-01-30T01:20:22;11.50;47.90
1367;DHT22;16877;48.810;9.282;2023-01-30T01:22:53;11.50;47.80
1367;DHT22;16877;48.810;9.282;2023-01-30T01:25:21;11.50;47.90
1367;DHT22;16877;48.810;9.282;2023-01-30T01:27:49;11.50;48.00
1367;DHT22;16877;48.810;9.282;2023-01-30T01:30:17;11.50;47.90
1367;DHT22;16877;48.810;9.282;2023-01-30T01:32:44;11.50;48.00
1367;DHT22;16877;48.810;9.282;2023-01-30T01:35:12;11.50;48.00
1367;DHT22;16877;48.810;9.282;2023-01-30T01:37:39;11.50;48.10
1367;DHT22;16877;48.810;9.282;2023-01-30T01:40:16;11.50;48.00
1367;DHT22;16877;48.810;9.282;2023-01-30T01:43:00;11.50;47.90
1367;DHT22;16877;48.810;9.282;2023-01-30T01:45:28;11.50;48.00
1367;DHT22;16877;48.810;9.282;2023-01-30T01:48:01;11.50;47.90
1367;DHT22;16877;48.810;9.282;2023-01-30T01:50:36;11.50;48.00
1367;DHT22;16877;48.810;9.282;2023-01-30T01:53:05;11.50;47.90
1367;DHT22;16877;48.810;9.282;2023-01-30T01:55:37;11.50;48.00
1367;DHT22;16877;48.810;9.282;2023-01-30T01:58:07;11.50;47.90
1367;DHT22;16877;48.810;9.282;2023-01-30T02:00:36;11.60;48.00
1367;DHT22;16877;48.810;9.282;2023-01-30T02:03:06;11.50;48.00
1367;DHT22;16877;48.810;9.282;2023-01-30T02:05:39;11.50;47.90
1367;DHT22;16877;48.810;9.282;2023-01-30T02:08:12;11.50;47.70
1367;DHT22;16877;48.810;9.282;2023-01-30T02:10:45;11.50;47.70
1367;DHT22;16877;48.810;9.282;2023-01-30T02:13:15;11.50;47.80
1367;DHT22;16877;48.810;9.282;2023-01-30T02:15:42;11.60;47.80
1367;DHT22;16877;48.810;9.282;2023-01-30T02:18:11;11.60;47.70
1367;DHT22;16877;48.810;9.282;2023-01-30T02:20:58;11.60;47.70
1367;DHT22;16877;48.810;9.282;2023-01-30T02:23:53;11.60;47.90
1367;DHT22;16877;48.810;9.282;2023-01-30T02:26:56;11.60;47.60
1367;DHT22;16877;48.810;9.282;2023-01-30T02:29:53;11.60;47.30
1367;DHT22;16877;48.810;9.282;2023-01-30T02:32:29;11.60;47.30
1367;DHT22;16877;48.810;9.282;2023-01-30T02:35:03;11.60;47.30
1367;DHT22;16877;48.810;9.282;2023-01-30T02:37:43;11.60;47.10
1367;DHT22;16877;48.810;9.282;2023-01-30T02:40:33;11.60;46.90
1367;DHT22;16877;48.810;9.282;2023-01-30T02:43:19;11.60;47.10
1367;DHT22;16877;48.810;9.282;2023-01-30T02:45:54;11.60;47.10
1367;DHT22;16877;48.810;9.282;2023-01-30T02:48:27;11.60;47.10
1367;DHT22;16877;48.810;9.282;2023-01-30T02:50:58;11.60;47.10
1367;DHT22;16877;48.810;9.282;2023-01-30T02:53:30;11.50;46.70
1367;DHT22;16877;48.810;9.282;2023-01-30T02:55:58;11.50;46.60
1367;DHT22;16877;48.810;9.282;2023-01-30T02:58:27;11.50;46.50
1367;DHT22;16877;48.810;9.282;2023-01-30T03:01:32;11.40;46.30
1367;DHT22;16877;48.810;9.282;2023-01-30T03:04:28;11.30;45.90
1367;DHT22;16877;48.810;9.282;2023-01-30T03:10:00;11.10;45.70
1367;DHT22;16877;48.810;9.282;2023-01-30T03:12:38;11.00;45.60
1367;DHT22;16877;48.810;9.282;2023-01-30T03:15:10;11.00;45.90
1367;DHT22;16877;48.810;9.282;2023-01-30T03:17:40;10.90;46.20
1367;DHT22;16877;48.810;9.282;2023-01-30T03:20:25;10.90;46.40
1367;DHT22;16877;48.810;9.282;2023-01-30T03:22:52;10.90;46.20
1367;DHT22;16877;48.810;9.282;2023-01-30T03:25:22;10.80;45.90
1367;DHT22;16877;48.810;9.282;2023-01-30T03:27:53;10.70;46.00
1367;DHT22;16877;48.810;9.282;2023-01-30T03:30:23;10.60;45.80
1367;DHT22;16877;48.810;9.282;2023-01-30T03:32:51;10.40;45.30
1367;DHT22;16877;48.810;9.282;2023-01-30T03:35:18;10.30;45.20
1367;DHT22;16877;48.810;9.282;2023-01-30T03:37:47;10.10;45.10
1367;DHT22;16877;48.810;9.282;2023-01-30T03:40:16;10.00;45.30
1367;DHT22;16877;48.810;9.282;2023-01-30T03:42:44;10.00;45.40
1367;DHT22;16877;48.810;9.282;2023-01-30T03:45:12;9.90;46.30
1367;DHT22;16877;48.810;9.282;2023-01-30T03:47:39;9.90;46.60
1367;DHT22;16877;48.810;9.282;2023-01-30T03:50:08;9.90;46.90
1367;DHT22;16877;48.810;9.282;2023-01-30T03:52:36;10.00;46.30
1367;DHT22;16877;48.810;9.282;2023-01-30T03:55:08;10.00;45.90
1367;DHT22;16877;48.810;9.282;2023-01-30T03:57:36;10.00;45.80
1367;DHT22;16877;48.810;9.282;2023-01-30T04:00:04;10.00;45.90
1367;DHT22;16877;48.810;9.282;2023-01-30T04:02:31;10.00;46.10
1367;DHT22;16877;48.810;9.282;2023-01-30T04:04:59;10.00;45.90
1367;DHT22;16877;48.810;9.282;2023-01-30T04:07:28;10.00;45.70
1367;DHT22;16877;48.810;9.282;2023-01-30T04:09:55;10.00;45.50
1367;DHT22;16877;48.810;9.282;2023-01-30T04:12:25;10.00;45.60
1367;DHT22;16877;48.810;9.282;2023-01-30T04:14:52;10.00;46.40
1367;DHT22;16877;48.810;9.282;2023-01-30T04:17:21;10.00;45.90
1367;DHT22;16877;48.810;9.282;2023-01-30T04:19:48;10.00;46.40
1367;DHT22;16877;48.810;9.282;2023-01-30T04:22:16;10.00;46.50
1367;DHT22;16877;48.810;9.282;2023-01-30T04:24:44;10.00;46.70
1367;DHT22;16877;48.810;9.282;2023-01-30T04:27:11;10.10;46.20
1367;DHT22;16877;48.810;9.282;2023-01-30T04:29:40;10.10;46.50
1367;DHT22;16877;48.810;9.282;2023-01-30T04:32:08;10.10;46.30
1367;DHT22;16877;48.810;9.282;2023-01-30T04:34:36;10.10;45.80
1367;DHT22;16877;48.810;9.282;2023-01-30T04:37:18;10.10;45.80
1367;DHT22;16877;48.810;9.282;2023-01-30T04:39:47;10.10;46.10
1367;DHT22;16877;48.810;9.282;2023-01-30T04:42:14;10.10;45.90
1367;DHT22;16877;48.810;9.282;2023-01-30T04:44:43;10.10;45.90
1367;DHT22;16877;48.810;9.282;2023-01-30T04:47:14;10.10;45.90
1367;DHT22;16877;48.810;9.282;2023-01-30T04:49:42;10.00;45.70
1367;DHT22;16877;48.810;9.282;2023-01-30T04:52:09;10.10;46.20
1367;DHT22;16877;48.810;9.282;2023-01-30T04:54:36;10.10;46.10
1367;DHT22;16877;48.810;9.282;2023-01-30T04:57:08;10.10;46.10
1367;DHT22;16877;48.810;9.282;2023-01-30T04:59:35;10.10;46.20
1367;DHT22;16877;48.810;9.282;2023-01-30T05:02:04;10.10;46.10
1367;DHT22;16877;48.810;9.282;2023-01-30T05:04:31;10.10;46.00
1367;DHT22;16877;48.810;9.282;2023-01-30T05:06:59;10.10;45.90
1367;DHT22;16877;48.810;9.282;2023-01-30T05:09:26;10.10;46.00
1367;DHT22;16877;48.810;9.282;2023-01-30T05:11:53;10.10;46.00
1367;DHT22;16877;48.810;9.282;2023-01-30T05:14:21;10.10;45.80
1367;DHT22;16877;48.810;9.282;2023-01-30T05:16:49;10.10;45.80
1367;DHT22;16877;48.810;9.282;2023-01-30T05:19:19;10.10;45.70
1367;DHT22;16877;48.810;9.282;2023-01-30T05:21:46;10.10;45.30
1367;DHT22;16877;48.810;9.282;2023-01-30T05:24:14;10.10;45.40
1367;DHT22;16877;48.810;9.282;2023-01-30T05:26:41;10.10;45.60
1367;DHT22;16877;48.810;9.282;2023-01-30T05:29:09;10.00;45.30
1367;DHT22;16877;48.810;9.282;2023-01-30T05:31:37;10.10;45.50
1367;DHT22;16877;48.810;9.282;2023-01-30T05:34:04;10.10;45.50
1367;DHT22;16877;48.810;9.282;2023-01-30T05:36:33;10.10;45.90
1367;DHT22;16877;48.810;9.282;2023-01-30T05:39:04;10.20;46.00
1367;DHT22;16877;48.810;9.282;2023-01-30T05:41:35;10.10;45.60
1367;DHT22;16877;48.810;9.282;2023-01-30T05:44:02;10.20;45.70
1367;DHT22;16877;48.810;9.282;2023-01-30T05:46:30;10.20;46.00
1367;DHT22;16877;48.810;9.282;2023-01-30T05:49:12;10.20;45.80
1367;DHT22;16877;48.810;9.282;2023-01-30T05:51:41;10.30;45.80
1367;DHT22;16877;48.810;9.282;2023-01-30T05:54:09;10.30;45.40
1367;DHT22;16877;48.810;9.282;2023-01-30T05:56:37;10.30;45.40
1367;DHT22;16877;48.810;9.282;2023-01-30T05:59:04;10.30;45.60
1367;DHT22;16877;48.810;9.282;2023-01-30T06:01:31;10.30;45.70
1367;DHT22;16877;48.810;9.282;2023-01-30T06:04:00;10.30;45.60
1367;DHT22;16877;48.810;9.282;2023-01-30T06:06:27;10.30;45.80
1367;DHT22;16877;48.810;9.282;2023-01-30T06:08:56;10.30;45.40
1367;DHT22;16877;48.810;9.282;2023-01-30T06:11:23;10.30;45.20
1367;DHT22;16877;48.810;9.282;2023-01-30T06:13:50;10.30;45.30
1367;DHT22;16877;48.810;9.282;2023-01-30T06:16:18;10.30;45.30
1367;DHT22;16877;48.810;9.282;2023-01-30T06:18:46;10.30;45.30
1367;DHT22;16877;48.810;9.282;2023-01-30T06:21:14;10.30;45.40
1367;DHT22;16877;48.810;9.282;2023-01-30T06:23:41;10.30;45.70
1367;DHT22;16877;48.810;9.282;2023-01-30T06:26:10;10.30;46.00
1367;DHT22;16877;48.810;9.282;2023-01-30T06:28:37;10.40;46.00
1367;DHT22;16877;48.810;9.282;2023-01-30T06:31:06;10.40;45.80
1367;DHT22;16877;48.810;9.282;2023-01-30T06:33:33;10.40;45.50
1367;DHT22;16877;48.810;9.282;2023-01-30T06:36:01;10.40;45.70
1367;DHT22;16877;48.810;9.282;2023-01-30T06:38:28;10.40;45.60
1367;DHT22;16877;48.810;9.282;2023-01-30T06:41:12;10.40;45.50
1367;DHT22;16877;48.810;9.282;2023-01-30T06:43:40;10.40;45.60
1367;DHT22;16877;48.810;9.282;2023-01-30T06:46:08;10.30;45.60
1367;DHT22;16877;48.810;9.282;2023-01-30T06:48:35;10.40;45.60
1367;DHT22;16877;48.810;9.282;2023-01-30T06:51:02;10.40;45.70
1367;DHT22;16877;48.810;9.282;2023-01-30T06:53:30;10.40;45.80
1367;DHT22;16877;48.810;9.282;2023-01-30T06:55:57;10.40;45.70
1367;DHT22;16877;48.810;9.282;2023-01-30T06:58:27;10.40;45.60
1367;DHT22;16877;48.810;9.282;2023-01-30T07:00:55;10.30;45.60
1367;DHT22;16877;48.810;9.282;2023-01-30T07:03:23;10.30;45.60
1367;DHT22;16877;48.810;9.282;2023-01-30T07:05:53;10.30;45.40
1367;DHT22;16877;48.810;9.282;2023-01-30T07:08:20;10.30;45.60
1367;DHT22;16877;48.810;9.282;2023-01-30T07:10:47;10.30;45.70
1367;DHT22;16877;48.810;9.282;2023-01-30T07:13:14;10.30;45.90
1367;DHT22;16877;48.810;9.282;2023-01-30T07:15:44;10.30;46.10
1367;DHT22;16877;48.810;9.282;2023-01-30T07:18:12;10.40;46.40
1367;DHT22;16877;48.810;9.282;2023-01-30T07:20:39;10.40;46.50
1367;DHT22;16877;48.810;9.282;2023-01-30T07:23:07;10.50;46.50
1367;DHT22;16877;48.810;9.282;2023-01-30T07:25:35;10.50;46.40
1367;DHT22;16877;48.810;9.282;2023-01-30T07:28:04;10.60;48.40
1367;DHT22;16877;48.810;9.282;2023-01-30T07:30:33;11.10;57.80
1367;DHT22;16877;48.810;9.282;2023-01-30T07:33:05;11.40;53.40
1367;DHT22;16877;48.810;9.282;2023-01-30T07:35:34;11.50;51.30
1367;DHT22;16877;48.810;9.282;2023-01-30T07:38:02;11.50;49.90
1367;DHT22;16877;48.810;9.282;2023-01-30T07:40:30;11.40;49.00
1367;DHT22;16877;48.810;9.282;2023-01-30T07:43:02;11.40;47.90
1367;DHT22;16877;48.810;9.282;2023-01-30T07:45:34;11.30;47.40
1367;DHT22;16877;48.810;9.282;2023-01-30T07:48:08;11.20;47.00
1367;DHT22;16877;48.810;9.282;2023-01-30T07:50:38;11.20;47.00
1367;DHT22;16877;48.810;9.282;2023-01-30T07:53:13;11.20;47.30
1367;DHT22;16877;48.810;9.282;2023-01-30T07:55:55;11.20;47.50
1367;DHT22;16877;48.810;9.282;2023-01-30T07:58:24;11.20;46.70
1367;DHT22;16877;48.810;9.282;2023-01-30T08:00:54;11.10;46.70
1367;DHT22;16877;48.810;9.282;2023-01-30T08:03:23;11.30;54.20
1367;DHT22;16877;48.810;9.282;2023-01-30T08:05:52;11.50;52.50
1367;DHT22;16877;48.810;9.282;2023-01-30T08:08:20;11.50;49.30
1367;DHT22;16877;48.810;9.282;2023-01-30T08:10:48;11.60;48.30
1367;DHT22;16877;48.810;9.282;2023-01-30T08:13:17;11.50;47.70
1367;DHT22;16877;48.810;9.282;2023-01-30T08:15:44;11.50;47.20
1367;DHT22;16877;48.810;9.282;2023-01-30T08:18:12;11.50;47.00
1367;DHT22;16877;48.810;9.282;2023-01-30T08:20:40;11.50;47.10
1367;DHT22;16877;48.810;9.282;2023-01-30T08:23:10;11.50;47.90
1367;DHT22;16877;48.810;9.282;2023-01-30T08:25:39;11.50;47.40
1367;DHT22;16877;48.810;9.282;2023-01-30T08:28:08;11.60;47.60
1367;DHT22;16877;48.810;9.282;2023-01-30T08:30:36;11.50;47.40
1367;DHT22;16877;48.810;9.282;2023-01-30T08:33:04;11.50;47.50
1367;DHT22;16877;48.810;9.282;2023-01-30T08:35:31;11.60;47.40
1367;DHT22;16877;48.810;9.282;2023-01-30T08:38:00;11.60;47.50
1367;DHT22;16877;48.810;9.282;2023-01-30T08:40:38;11.50;47.40
1367;DHT22;16877;48.810;9.282;2023-01-30T08:43:10;11.70;47.60
1367;DHT22;16877;48.810;9.282;2023-01-30T08:45:38;12.00;47.80
1367;DHT22;16877;48.810;9.282;2023-01-30T08:48:07;11.90;47.70
1367;DHT22;16877;48.810;9.282;2023-01-30T08:50:35;11.90;47.40
1367;DHT22;16877;48.810;9.282;2023-01-30T08:53:08;11.90;47.40
1367;DHT22;16877;48.810;9.282;2023-01-30T08:55:51;12.00;47.40
1367;DHT22;16877;48.810;9.282;2023-01-30T08:58:26;12.00;47.20
1367;DHT22;16877;48.810;9.282;2023-01-30T09:00:54;12.00;46.80
1367;DHT22;16877;48.810;9.282;2023-01-30T09:03:21;12.10;46.70
1367;DHT22;16877;48.810;9.282;2023-01-30T09:05:54;12.20;46.80
1367;DHT22;16877;48.810;9.282;2023-01-30T09:08:27;12.40;46.60
1367;DHT22;16877;48.810;9.282;2023-01-30T09:10:57;12.60;46.60
1367;DHT22;16877;48.810;9.282;2023-01-30T09:13:25;12.90;46.50
1367;DHT22;16877;48.810;9.282;2023-01-30T09:16:08;13.00;45.90
1367;DHT22;16877;48.810;9.282;2023-01-30T09:18:38;13.20;45.70
1367;DHT22;16877;48.810;9.282;2023-01-30T09:21:07;13.30;45.70
1367;DHT22;16877;48.810;9.282;2023-01-30T09:23:44;13.30;45.30
1367;DHT22;16877;48.810;9.282;2023-01-30T09:26:11;13.20;44.90
1367;DHT22;16877;48.810;9.282;2023-01-30T09:28:44;13.20;45.00
1367;DHT22;16877;48.810;9.282;2023-01-30T09:31:12;13.10;44.70
1367;DHT22;16877;48.810;9.282;2023-01-30T09:33:42;13.00;44.70
1367;DHT22;16877;48.810;9.282;2023-01-30T09:36:10;12.90;44.50
1367;DHT22;16877;48.810;9.282;2023-01-30T09:38:39;12.80;44.70
1367;DHT22;16877;48.810;9.282;2023-01-30T09:41:20;12.80;44.90
1367;DHT22;16877;48.810;9.282;2023-01-30T09:44:05;12.70;44.80
1367;DHT22;16877;48.810;9.282;2023-01-30T09:46:41;12.60;44.80
1367;DHT22;16877;48.810;9.282;2023-01-30T09:49:26;12.60;45.10
1367;DHT22;16877;48.810;9.282;2023-01-30T09:52:03;12.60;45.40
1367;DHT22;16877;48.810;9.282;2023-01-30T09:54:39;12.60;45.60
1367;DHT22;16877;48.810;9.282;2023-01-30T09:57:10;12.60;45.80
1367;DHT22;16877;48.810;9.282;2023-01-30T09:59:56;12.50;45.90
1367;DHT22;16877;48.810;9.282;2023-01-30T10:02:43;12.50;45.70
1367;DHT22;16877;48.810;9.282;2023-01-30T10:05:14;12.50;45.80
1367;DHT22;16877;48.810;9.282;2023-01-30T10:07:54;12.40;45.80
1367;DHT22;16877;48.810;9.282;2023-01-30T10:10:39;12.40;46.00
1367;DHT22;16877;48.810;9.282;2023-01-30T10:13:33;12.40;46.60
1367;DHT22;16877;48.810;9.282;2023-01-30T10:16:07;12.40;46.20
1367;DHT22;16877;48.810;9.282;2023-01-30T10:19:06;12.40;46.20
1367;DHT22;16877;48.810;9.282;2023-01-30T10:21:42;12.30;46.20
1367;DHT22;16877;48.810;9.282;2023-01-30T10:24:26;12.30;46.30
1367;DHT22;16877;48.810;9.282;2023-01-30T10:26:57;12.30;47.10
1367;DHT22;16877;48.810;9.282;2023-01-30T10:29:28;12.40;46.70
1367;DHT22;16877;48.810;9.282;2023-01-30T10:32:04;12.40;46.90
1367;DHT22;16877;48.810;9.282;2023-01-30T10:34:35;12.30;47.00
1367;DHT22;16877;48.810;9.282;2023-01-30T10:37:19;12.30;47.10
1367;DHT22;16877;48.810;9.282;2023-01-30T10:39:52;12.40;47.30
1367;DHT22;16877;48.810;9.282;2023-01-30T10:42:26;12.40;47.40
1367;DHT22;16877;48.810;9.282;2023-01-30T10:45:01;12.40;47.50
1367;DHT22;16877;48.810;9.282;2023-01-30T10:47:48;12.30;47.30
1367;DHT22;16877;48.810;9.282;2023-01-30T10:50:26;12.30;47.30
1367;DHT22;16877;48.810;9.282;2023-01-30T10:53:04;12.30;47.30
1367;DHT22;16877;48.810;9.282;2023-01-30T10:55:37;12.20;47.30
1367;DHT22;16877;48.810;9.282;2023-01-30T10:58:15;12.20;47.50
1367;DHT22;16877;48.810;9.282;2023-01-30T11:00:47;12.20;47.80
1367;DHT22;16877;48.810;9.282;2023-01-30T11:03:21;12.20;48.10
1367;DHT22;16877;48.810;9.282;2023-01-30T11:05:51;12.20;48.30
1367;DHT22;16877;48.810;9.282;2023-01-30T11:08:21;12.20;48.50
1367;DHT22;16877;48.810;9.282;2023-01-30T11:10:49;12.20;48.80
1367;DHT22;16877;48.810;9.282;2023-01-30T11:13:20;12.20;48.90
1367;DHT22;16877;48.810;9.282;2023-01-30T11:15:50;12.20;49.20
1367;DHT22;16877;48.810;9.282;2023-01-30T11:18:19;12.10;49.30
1367;DHT22;16877;48.810;9.282;2023-01-30T11:20:57;12.10;49.30
1367;DHT22;16877;48.810;9.282;2023-01-30T11:23:31;12.10;49.40
1367;DHT22;16877;48.810;9.282;2023-01-30T11:26:00;12.10;49.40
1367;DHT22;16877;48.810;9.282;2023-01-30T11:28:34;12.10;49.60
1367;DHT22;16877;48.810;9.282;2023-01-30T11:31:16;12.00;49.60
1367;DHT22;16877;48.810;9.282;2023-01-30T11:33:45;12.10;49.90
1367;DHT22;16877;48.810;9.282;2023-01-30T11:36:32;12.10;49.90
1367;DHT22;16877;48.810;9.282;2023-01-30T11:39:02;12.00;50.00
1367;DHT22;16877;48.810;9.282;2023-01-30T11:41:32;12.00;50.50
1367;DHT22;16877;48.810;9.282;2023-01-30T11:44:03;12.00;50.70
1367;DHT22;16877;48.810;9.282;2023-01-30T11:46:39;12.00;50.80
1367;DHT22;16877;48.810;9.282;2023-01-30T11:49:12;12.00;51.20
1367;DHT22;16877;48.810;9.282;2023-01-30T11:51:55;12.00;51.50
1367;DHT22;16877;48.810;9.282;2023-01-30T11:54:28;12.00;51.50
1367;DHT22;16877;48.810;9.282;2023-01-30T11:57:01;11.90;52.00
1367;DHT22;16877;48.810;9.282;2023-01-30T11:59:34;11.90;51.80
1367;DHT22;16877;48.810;9.282;2023-01-30T12:02:04;11.90;52.00
1367;DHT22;16877;48.810;9.282;2023-01-30T12:04:34;11.90;52.20
1367;DHT22;16877;48.810;9.282;2023-01-30T12:07:22;11.90;52.30
1367;DHT22;16877;48.810;9.282;2023-01-30T12:09:50;11.90;52.30
1367;DHT22;16877;48.810;9.282;2023-01-30T12:12:31;11.80;52.10
1367;DHT22;16877;48.810;9.282;2023-01-30T12:15:17;11.80;52.10
1367;DHT22;16877;48.810;9.282;2023-01-30T12:17:56;11.80;52.30
1367;DHT22;16877;48.810;9.282;2023-01-30T12:20:55;11.70;52.50
1367;DHT22;16877;48.810;9.282;2023-01-30T12:23:40;11.70;52.60
1367;DHT22;16877;48.810;9.282;2023-01-30T12:26:14;11.70;52.70
1367;DHT22;16877;48.810;9.282;2023-01-30T12:28:47;11.70;52.80
1367;DHT22;16877;48.810;9.282;2023-01-30T12:31:23;11.70;53.10
1367;DHT22;16877;48.810;9.282;2023-01-30T12:33:51;11.70;53.40
1367;DHT22;16877;48.810;9.282;2023-01-30T12:36:31;11.70;53.60
1367;DHT22;16877;48.810;9.282;2023-01-30T12:39:10;11.70;53.70
1367;DHT22;16877;48.810;9.282;2023-01-30T12:42:05;11.70;53.80
1367;DHT22;16877;48.810;9.282;2023-01-30T12:44:55;11.70;54.00
1367;DHT22;16877;48.810;9.282;2023-01-30T12:47:35;11.70;54.40
1367;DHT22;16877;48.810;9.282;2023-01-30T12:50:26;11.60;54.90
1367;DHT22;16877;48.810;9.282;2023-01-30T12:53:08;11.70;54.70
1367;DHT22;16877;48.810;9.282;2023-01-30T12:55:49;11.70;54.80
1367;DHT22;16877;48.810;9.282;2023-01-30T12:58:26;11.70;54.80
1367;DHT22;16877;48.810;9.282;2023-01-30T13:01:09;11.70;54.80
1367;DHT22;16877;48.810;9.282;2023-01-30T13:03:44;11.70;54.60
1367;DHT22;16877;48.810;9.282;2023-01-30T13:06:32;11.60;54.40
1367;DHT22;16877;48.810;9.282;2023-01-30T13:09:13;11.70;54.40
1367;DHT22;16877;48.810;9.282;2023-01-30T13:11:56;11.70;54.60
1367;DHT22;16877;48.810;9.282;2023-01-30T13:14:32;11.70;55.00
1367;DHT22;16877;48.810;9.282;2023-01-30T13:17:19;11.70;54.90
1367;DHT22;16877;48.810;9.282;2023-01-30T13:19:56;11.70;54.90
1367;DHT22;16877;48.810;9.282;2023-01-30T13:22:32;11.70;55.10
1367;DHT22;16877;48.810;9.282;2023-01-30T13:25:16;11.70;55.10
1367;DHT22;16877;48.810;9.282;2023-01-30T13:27:51;11.80;55.20
1367;DHT22;16877;48.810;9.282;2023-01-30T13:30:22;11.80;55.50
1367;DHT22;16877;48.810;9.282;2023-01-30T13:32:55;11.80;55.60
1367;DHT22;16877;48.810;9.282;2023-01-30T13:35:28;11.80;55.50
1367;DHT22;16877;48.810;9.282;2023-01-30T13:37:57;11.90;55.50
1367;DHT22;16877;48.810;9.282;2023-01-30T13:40:29;11.90;55.50
1367;DHT22;16877;48.810;9.282;2023-01-30T13:43:08;12.00;55.70
1367;DHT22;16877;48.810;9.282;2023-01-30T13:45:41;12.00;55.80
1367;DHT22;16877;48.810;9.282;2023-01-30T13:48:23;12.00;55.70
1367;DHT22;16877;48.810;9.282;2023-01-30T13:51:11;12.00;55.80
1367;DHT22;16877;48.810;9.282;2023-01-30T13:53:47;12.00;55.70
1367;DHT22;16877;48.810;9.282;2023-01-30T13:56:21;12.00;55.40
1367;DHT22;16877;48.810;9.282;2023-01-30T13:58:55;12.00;55.40
1367;DHT22;16877;48.810;9.282;2023-01-30T14:02:07;12.00;55.50
1367;DHT22;16877;48.810;9.282;2023-01-30T14:04:56;12.00;55.80
1367;DHT22;16877;48.810;9.282;2023-01-30T14:07:29;12.00;55.90
1367;DHT22;16877;48.810;9.282;2023-01-30T14:10:13;12.10;56.00
1367;DHT22;16877;48.810;9.282;2023-01-30T14:12:43;12.10;56.10
1367;DHT22;16877;48.810;9.282;2023-01-30T14:15:26;12.10;55.80
1367;DHT22;16877;48.810;9.282;2023-01-30T14:18:01;12.20;55.70
1367;DHT22;16877;48.810;9.282;2023-01-30T14:20:33;12.10;55.40
1367;DHT22;16877;48.810;9.282;2023-01-30T14:23:04;12.10;55.40
1367;DHT22;16877;48.810;9.282;2023-01-30T14:25:48;12.10;55.20
1367;DHT22;16877;48.810;9.282;2023-01-30T14:28:46;12.20;55.20
1367;DHT22;16877;48.810;9.282;2023-01-30T14:31:44;12.30;55.20
1367;DHT22;16877;48.810;9.282;2023-01-30T14:40:36;12.40;55.10
1367;DHT22;16877;48.810;9.282;2023-01-30T14:43:26;12.50;56.10
1367;DHT22;16877;48.810;9.282;2023-01-30T14:46:02;12.50;55.00
1367;DHT22;16877;48.810;9.282;2023-01-30T14:48:32;12.40;54.70
1367;DHT22;16877;48.810;9.282;2023-01-30T14:51:11;12.40;54.50
1367;DHT22;16877;48.810;9.282;2023-01-30T14:53:50;12.40;54.50
1367;DHT22;16877;48.810;9.282;2023-01-30T14:56:33;12.40;54.50
1367;DHT22;16877;48.810;9.282;2023-01-30T14:59:06;12.40;54.40
1367;DHT22;16877;48.810;9.282;2023-01-30T15:01:54;12.50;54.20
1367;DHT22;16877;48.810;9.282;2023-01-30T15:04:22;12.60;54.20
1367;DHT22;16877;48.810;9.282;2023-01-30T15:06:50;12.80;54.10
1367;DHT22;16877;48.810;9.282;2023-01-30T15:09:18;13.20;53.70
1367;DHT22;16877;48.810;9.282;2023-01-30T15:11:54;13.20;53.20
1367;DHT22;16877;48.810;9.282;2023-01-30T15:14:28;13.60;53.30
1367;DHT22;16877;48.810;9.282;2023-01-30T15:17:07;13.70;53.10
1367;DHT22;16877;48.810;9.282;2023-01-30T15:19:55;14.10;52.80
1367;DHT22;16877;48.810;9.282;2023-01-30T15:22:30;14.30;52.30
1367;DHT22;16877;48.810;9.282;2023-01-30T15:25:17;14.60;51.50
1367;DHT22;16877;48.810;9.282;2023-01-30T15:27:59;14.80;51.10
1367;DHT22;16877;48.810;9.282;2023-01-30T15:30:39;15.00;50.70
1367;DHT22;16877;48.810;9.282;2023-01-30T15:33:15;15.10;50.50
1367;DHT22;16877;48.810;9.282;2023-01-30T15:35:45;15.20;50.60
1367;DHT22;16877;48.810;9.282;2023-01-30T15:38:25;15.20;50.30
1367;DHT22;16877;48.810;9.282;2023-01-30T15:40:53;15.20;50.00
1367;DHT22;16877;48.810;9.282;2023-01-30T15:43:53;15.00;49.50
1367;DHT22;16877;48.810;9.282;2023-01-30T15:46:33;15.00;49.30
1367;DHT22;16877;48.810;9.282;2023-01-30T15:49:21;14.90;49.50
1367;DHT22;16877;48.810;9.282;2023-01-30T15:51:52;14.80;49.40
1367;DHT22;16877;48.810;9.282;2023-01-30T15:54:23;14.60;49.40
1367;DHT22;16877;48.810;9.282;2023-01-30T15:57:00;14.60;49.50
1367;DHT22;16877;48.810;9.282;2023-01-30T15:59:30;14.50;49.50
1367;DHT22;16877;48.810;9.282;2023-01-30T16:02:03;14.30;49.40
1367;DHT22;16877;48.810;9.282;2023-01-30T16:04:32;14.20;49.50
1367;DHT22;16877;48.810;9.282;2023-01-30T16:07:13;14.10;49.60
1367;DHT22;16877;48.810;9.282;2023-01-30T16:09:41;14.00;49.90
1367;DHT22;16877;48.810;9.282;2023-01-30T16:12:23;14.00;49.90
1367;DHT22;16877;48.810;9.282;2023-01-30T16:14:51;13.90;50.00
1367;DHT22;16877;48.810;9.282;2023-01-30T16:17:24;13.80;50.00
1367;DHT22;16877;48.810;9.282;2023-01-30T16:19:53;13.70;50.10
1367;DHT22;16877;48.810;9.282;2023-01-30T16:22:21;13.70;50.30
1367;DHT22;16877;48.810;9.282;2023-01-30T16:24:51;13.60;50.20
1367;DHT22;16877;48.810;9.282;2023-01-30T16:27:23;13.50;50.10
1367;DHT22;16877;48.810;9.282;2023-01-30T16:29:56;13.40;50.30
1367;DHT22;16877;48.810;9.282;2023-01-30T16:32:27;13.40;50.50
1367;DHT22;16877;48.810;9.282;2023-01-30T16:35:26;13.30;50.60
1367;DHT22;16877;48.810;9.282;2023-01-30T16:37:56;13.20;50.50